createdAt,value
2022-07-26T00:00:08.610Z,999.3
2022-07-26T00:01:44.928Z,999.4
2022-07-26T00:03:20.287Z,999.3
2022-07-26T00:04:56.615Z,999.3
2022-07-26T00:06:32.958Z,999.3
2022-07-26T00:08:09.281Z,999.3
2022-07-26T00:09:45.610Z,999.3
2022-07-26T00:11:21.934Z,999.3
2022-07-26T00:12:58.272Z,999.3
2022-07-26T00:14:34.597Z,999.3
2022-07-26T00:16:10.937Z,999.3
2022-07-26T00:17:47.262Z,999.3
2022-07-26T00:19:23.596Z,999.3
2022-07-26T00:20:59.925Z,999.3
2022-07-26T00:22:36.252Z,999.3
2022-07-26T00:24:11.603Z,999.3
2022-07-26T00:25:47.924Z,999.3
2022-07-26T00:27:24.282Z,999.3
2022-07-26T00:29:00.611Z,999.3
2022-07-26T00:30:36.956Z,999.3
2022-07-26T00:32:13.256Z,999.2
2022-07-26T00:33:49.627Z,999.3
2022-07-26T00:35:25.928Z,999.3
2022-07-26T00:37:02.354Z,999.3
2022-07-26T00:38:38.578Z,999.3
2022-07-26T00:40:14.909Z,999.3
2022-07-26T00:41:51.241Z,999.3
2022-07-26T00:43:27.625Z,999.3
2022-07-26T00:45:02.927Z,999.3
2022-07-26T00:46:39.242Z,999.3
2022-07-26T00:48:15.621Z,999.3
2022-07-26T00:49:51.971Z,999.3
2022-07-26T00:51:28.239Z,999.3
2022-07-26T00:53:04.573Z,999.3
2022-07-26T00:54:40.960Z,999.3
2022-07-26T00:56:17.230Z,999.3
2022-07-26T00:57:53.658Z,999.4
2022-07-26T00:59:29.898Z,999.4
2022-07-26T01:01:06.218Z,999.4
2022-07-26T01:02:42.635Z,999.3
2022-07-26T01:04:18.885Z,999.4
2022-07-26T01:05:54.327Z,999.4
2022-07-26T01:07:30.590Z,999.4
2022-07-26T01:09:05.964Z,999.4
2022-07-26T01:10:42.293Z,999.3
2022-07-26T01:12:18.590Z,999.4
2022-07-26T01:13:54.938Z,999.3
2022-07-26T01:15:31.260Z,999.4
2022-07-26T01:17:07.603Z,999.4
2022-07-26T01:18:43.904Z,999.4
2022-07-26T01:20:20.235Z,999.4
2022-07-26T01:21:56.563Z,999.3
2022-07-26T01:23:32.903Z,999.4
2022-07-26T01:25:09.225Z,999.4
2022-07-26T01:26:45.560Z,999.4
2022-07-26T01:28:21.889Z,999.3
2022-07-26T01:29:57.234Z,999.4
2022-07-26T01:31:33.563Z,999.4
2022-07-26T01:33:09.895Z,999.3
2022-07-26T01:34:46.223Z,999.3
2022-07-26T01:36:22.554Z,999.3
2022-07-26T01:37:58.888Z,999.3
2022-07-26T01:39:35.225Z,999.3
2022-07-26T01:41:11.565Z,999.3
2022-07-26T01:42:47.879Z,999.3
2022-07-26T01:44:24.210Z,999.3
2022-07-26T01:46:00.548Z,999.3
2022-07-26T01:47:36.880Z,999.3
2022-07-26T01:49:13.200Z,999.3
2022-07-26T01:50:48.557Z,999.3
2022-07-26T01:52:23.902Z,999.3
2022-07-26T01:54:00.247Z,999.3
2022-07-26T01:55:35.590Z,999.3
2022-07-26T01:57:10.933Z,999.3
2022-07-26T01:58:47.278Z,999.3
2022-07-26T02:00:23.606Z,999.4
2022-07-26T02:01:59.934Z,999.3
2022-07-26T02:03:36.270Z,999.3
2022-07-26T02:05:12.585Z,999.3
2022-07-26T02:06:48.942Z,999.4
2022-07-26T02:08:25.257Z,999.4
2022-07-26T02:10:01.591Z,999.3
2022-07-26T02:11:37.919Z,999.4
2022-07-26T02:13:14.256Z,999.4
2022-07-26T02:14:50.578Z,999.4
2022-07-26T02:16:26.916Z,999.4
2022-07-26T02:18:02.260Z,999.4
2022-07-26T02:19:38.591Z,999.5
2022-07-26T02:21:14.940Z,999.5
2022-07-26T02:22:51.254Z,999.5
2022-07-26T02:24:27.594Z,999.4
2022-07-26T02:26:03.943Z,999.5
2022-07-26T02:27:40.243Z,999.5
2022-07-26T02:29:16.566Z,999.5
2022-07-26T02:30:52.907Z,999.5
2022-07-26T02:32:29.232Z,999.5
2022-07-26T02:34:05.567Z,999.5
2022-07-26T02:35:41.896Z,999.5
2022-07-26T02:37:18.231Z,999.5
2022-07-26T02:38:53.589Z,999.5
2022-07-26T02:40:29.915Z,999.5
2022-07-26T02:42:06.243Z,999.5
2022-07-26T02:43:42.562Z,999.5
2022-07-26T02:45:18.909Z,999.5
2022-07-26T02:46:55.228Z,999.5
2022-07-26T02:48:31.556Z,999.5
2022-07-26T02:50:07.896Z,999.5
2022-07-26T02:51:44.218Z,999.5
2022-07-26T02:53:20.553Z,999.5
2022-07-26T02:54:56.888Z,999.5
2022-07-26T02:56:33.217Z,999.5
2022-07-26T02:58:09.549Z,999.5
2022-07-26T02:59:44.892Z,999.5
2022-07-26T03:01:21.227Z,999.5
2022-07-26T03:02:57.558Z,999.5
2022-07-26T03:04:33.872Z,999.5
2022-07-26T03:06:10.206Z,999.5
2022-07-26T03:07:46.545Z,999.6
2022-07-26T03:09:22.877Z,999.5
2022-07-26T03:10:59.205Z,999.5
2022-07-26T03:12:35.534Z,999.5
2022-07-26T03:14:11.859Z,999.6
2022-07-26T03:15:48.194Z,999.6
2022-07-26T03:17:24.537Z,999.6
2022-07-26T03:19:00.855Z,999.6
2022-07-26T03:20:36.201Z,999.7
2022-07-26T03:22:11.558Z,999.7
2022-07-26T03:23:47.898Z,999.7
2022-07-26T03:25:23.238Z,999.8
2022-07-26T03:26:59.572Z,999.7
2022-07-26T03:28:35.905Z,999.8
2022-07-26T03:30:12.237Z,999.8
2022-07-26T03:31:48.564Z,999.8
2022-07-26T03:33:24.891Z,999.8
2022-07-26T03:35:01.228Z,999.8
2022-07-26T03:36:36.582Z,999.8
2022-07-26T03:38:11.927Z,999.8
2022-07-26T03:39:48.258Z,999.8
2022-07-26T03:41:24.596Z,999.8
2022-07-26T03:43:00.919Z,999.8
2022-07-26T03:44:37.254Z,999.8
2022-07-26T03:46:13.593Z,999.9
2022-07-26T03:47:49.915Z,999.9
2022-07-26T03:49:26.255Z,999.9
2022-07-26T03:51:02.573Z,999.9
2022-07-26T03:52:38.904Z,999.9
2022-07-26T03:54:15.233Z,999.9
2022-07-26T03:55:51.572Z,1000
2022-07-26T03:57:27.891Z,1000
2022-07-26T03:59:03.241Z,1000
2022-07-26T04:00:39.577Z,1000
2022-07-26T04:02:15.901Z,1000
2022-07-26T04:03:52.230Z,1000
2022-07-26T04:05:28.569Z,1000
2022-07-26T04:07:04.903Z,1000
2022-07-26T04:08:41.239Z,1000
2022-07-26T04:10:16.579Z,1000
2022-07-26T04:11:51.993Z,1000
2022-07-26T04:13:28.261Z,1000
2022-07-26T04:15:03.632Z,1000.1
2022-07-26T04:16:38.968Z,1000.1
2022-07-26T04:18:15.303Z,1000.1
2022-07-26T04:19:51.625Z,1000.1
2022-07-26T04:21:27.962Z,1000.2
2022-07-26T04:23:04.294Z,1000.2
2022-07-26T04:24:40.629Z,1000.2
2022-07-26T04:26:16.950Z,1000.3
2022-07-26T04:27:53.280Z,1000.3
2022-07-26T04:29:29.616Z,1000.3
2022-07-26T04:31:05.943Z,1000.3
2022-07-26T04:32:42.273Z,1000.3
2022-07-26T04:34:18.607Z,1000.3
2022-07-26T04:35:54.933Z,1000.3
2022-07-26T04:37:30.286Z,1000.4
2022-07-26T04:39:06.626Z,1000.4
2022-07-26T04:40:42.964Z,1000.3
2022-07-26T04:42:19.288Z,1000.3
2022-07-26T04:43:55.618Z,1000.4
2022-07-26T04:45:31.937Z,1000.4
2022-07-26T04:47:08.269Z,1000.3
2022-07-26T04:48:43.624Z,1000.4
2022-07-26T04:50:18.977Z,1000.4
2022-07-26T04:51:55.307Z,1000.3
2022-07-26T04:53:31.640Z,1000.4
2022-07-26T04:55:07.960Z,1000.3
2022-07-26T04:56:44.300Z,1000.3
2022-07-26T04:58:20.617Z,1000.3
2022-07-26T04:59:56.965Z,1000.3
2022-07-26T05:01:33.289Z,1000.3
2022-07-26T05:03:09.617Z,1000.3
2022-07-26T05:04:45.949Z,1000.3
2022-07-26T05:06:22.279Z,1000.3
2022-07-26T05:07:58.610Z,1000.3
2022-07-26T05:09:34.947Z,1000.2
2022-07-26T05:11:10.295Z,1000.3
2022-07-26T05:12:46.620Z,1000.3
2022-07-26T05:14:22.947Z,1000.3
2022-07-26T05:15:59.275Z,1000.3
2022-07-26T05:17:35.604Z,1000.4
2022-07-26T05:19:11.942Z,1000.4
2022-07-26T05:20:48.273Z,1000.4
2022-07-26T05:22:23.640Z,1000.4
2022-07-26T05:23:58.973Z,1000.4
2022-07-26T05:27:11.640Z,1000.4
2022-07-26T05:28:47.006Z,1000.4
2022-07-26T05:30:22.343Z,1000.5
2022-07-26T05:31:58.678Z,1000.4
2022-07-26T05:33:35.008Z,1000.5
2022-07-26T05:35:11.343Z,1000.5
2022-07-26T05:36:47.656Z,1000.4
2022-07-26T05:38:23.996Z,1000.4
2022-07-26T05:40:00.327Z,1000.5
2022-07-26T05:41:36.665Z,1000.4
2022-07-26T05:43:12.985Z,1000.4
2022-07-26T05:44:49.328Z,1000.4
2022-07-26T05:46:25.653Z,1000.4
2022-07-26T05:48:01.991Z,1000.4
2022-07-26T05:49:38.310Z,1000.5
2022-07-26T05:51:13.661Z,1000.4
2022-07-26T05:52:49.990Z,1000.5
2022-07-26T05:54:26.321Z,1000.5
2022-07-26T05:56:02.658Z,1000.5
2022-07-26T05:57:38.985Z,1000.5
2022-07-26T05:59:15.322Z,1000.5
2022-07-26T06:00:51.645Z,1000.5
2022-07-26T06:02:27.975Z,1000.5
2022-07-26T06:04:04.314Z,1000.5
2022-07-26T06:05:40.634Z,1000.5
2022-07-26T06:07:16.967Z,1000.6
2022-07-26T06:08:53.296Z,1000.6
2022-07-26T06:10:29.628Z,1000.6
2022-07-26T06:12:05.973Z,1000.6
2022-07-26T06:13:41.318Z,1000.6
2022-07-26T06:15:17.639Z,1000.6
2022-07-26T06:16:53.967Z,1000.6
2022-07-26T06:18:30.299Z,1000.6
2022-07-26T06:20:06.739Z,1000.6
2022-07-26T06:21:42.957Z,1000.6
2022-07-26T06:23:19.294Z,1000.6
2022-07-26T06:24:55.616Z,1000.7
2022-07-26T06:26:31.948Z,1000.6
2022-07-26T06:28:08.299Z,1000.7
2022-07-26T06:29:44.683Z,1000.7
2022-07-26T06:31:20.940Z,1000.7
2022-07-26T06:32:56.294Z,1000.7
2022-07-26T06:34:32.629Z,1000.7
2022-07-26T06:36:08.957Z,1000.7
2022-07-26T06:37:45.293Z,1000.7
2022-07-26T06:39:21.629Z,1000.7
2022-07-26T06:40:57.948Z,1000.7
2022-07-26T06:42:34.293Z,1000.7
2022-07-26T06:44:10.612Z,1000.7
2022-07-26T06:45:46.956Z,1000.7
2022-07-26T06:47:23.275Z,1000.7
2022-07-26T06:48:59.602Z,1000.7
2022-07-26T06:50:35.929Z,1000.8
2022-07-26T06:52:12.270Z,1000.7
2022-07-26T06:53:47.610Z,1000.7
2022-07-26T06:55:23.935Z,1000.7
2022-07-26T06:57:00.272Z,1000.7
2022-07-26T06:58:35.628Z,1000.8
2022-07-26T07:00:10.983Z,1000.8
2022-07-26T07:01:47.311Z,1000.8
2022-07-26T07:03:23.650Z,1000.8
2022-07-26T07:04:59.997Z,1000.8
2022-07-26T07:06:36.301Z,1000.8
2022-07-26T07:08:12.628Z,1000.8
2022-07-26T07:09:48.961Z,1000.8
2022-07-26T07:11:25.294Z,1000.9
2022-07-26T07:13:01.631Z,1000.9
2022-07-26T07:14:37.951Z,1000.9
2022-07-26T07:16:14.290Z,1000.8
2022-07-26T07:17:49.645Z,1000.9
2022-07-26T07:19:24.994Z,1000.9
2022-07-26T07:22:37.646Z,1000.9
2022-07-26T07:24:13.986Z,1001
2022-07-26T07:25:50.318Z,1001
2022-07-26T07:27:26.641Z,1001
2022-07-26T07:29:02.972Z,1001
2022-07-26T07:30:39.312Z,1001
2022-07-26T07:32:15.635Z,1001
2022-07-26T07:33:51.973Z,1001
2022-07-26T07:35:28.298Z,1001
2022-07-26T07:37:04.634Z,1001.1
2022-07-26T07:38:40.960Z,1001.1
2022-07-26T07:40:16.311Z,1001.1
2022-07-26T07:41:52.642Z,1001.1
2022-07-26T07:43:28.982Z,1001.1
2022-07-26T07:45:05.297Z,1001.2
2022-07-26T07:46:41.652Z,1001.1
2022-07-26T07:48:17.968Z,1001.1
2022-07-26T07:49:54.286Z,1001.2
2022-07-26T07:51:30.621Z,1001.2
2022-07-26T07:53:06.954Z,1001.2
2022-07-26T07:54:43.284Z,1001.2
2022-07-26T07:56:19.621Z,1001.2
2022-07-26T07:57:55.955Z,1001.1
2022-07-26T07:59:32.277Z,1001.1
2022-07-26T08:01:07.618Z,1001.1
2022-07-26T08:02:43.947Z,1001.1
2022-07-26T08:04:20.282Z,1001.1
2022-07-26T08:05:56.622Z,1001.2
2022-07-26T08:07:32.942Z,1001.2
2022-07-26T08:09:09.293Z,1001.1
2022-07-26T08:10:45.622Z,1001.2
2022-07-26T08:12:21.953Z,1001.1
2022-07-26T08:13:58.272Z,1001.1
2022-07-26T08:15:34.603Z,1001.1
2022-07-26T08:17:10.928Z,1001.1
2022-07-26T08:18:47.263Z,1001.1
2022-07-26T08:20:23.593Z,1001.1
2022-07-26T08:21:58.943Z,1001.1
2022-07-26T08:23:35.274Z,1001.1
2022-07-26T08:25:11.606Z,1001
2022-07-26T08:26:47.938Z,1001.1
2022-07-26T08:28:24.257Z,1001.1
2022-07-26T08:30:00.595Z,1001.1
2022-07-26T08:31:36.939Z,1001.1
2022-07-26T08:33:13.259Z,1001.1
2022-07-26T08:34:49.591Z,1001.1
2022-07-26T08:36:24.951Z,1001.1
2022-07-26T08:38:00.293Z,1001.1
2022-07-26T08:39:36.615Z,1001.1
2022-07-26T08:41:11.973Z,1001.1
2022-07-26T08:42:47.332Z,1001.1
2022-07-26T08:44:23.654Z,1001.2
2022-07-26T08:45:59.995Z,1001.2
2022-07-26T08:47:36.310Z,1001.2
2022-07-26T08:49:12.651Z,1001.1
2022-07-26T08:50:48.987Z,1001.1
2022-07-26T08:52:25.310Z,1001.1
2022-07-26T08:54:01.650Z,1001.1
2022-07-26T08:55:37.971Z,1001.1
2022-07-26T08:57:14.297Z,1001.1
2022-07-26T08:58:50.664Z,1001.1
2022-07-26T09:00:26.967Z,1001.1
2022-07-26T09:02:03.293Z,1001.2
2022-07-26T09:03:38.641Z,1001.1
2022-07-26T09:05:14.998Z,1001.2
2022-07-26T09:06:51.301Z,1001.2
2022-07-26T09:08:27.645Z,1001.2
2022-07-26T09:10:03.974Z,1001.2
2022-07-26T09:11:40.294Z,1001.2
2022-07-26T09:13:16.624Z,1001.3
2022-07-26T09:14:52.960Z,1001.3
2022-07-26T09:16:29.288Z,1001.2
2022-07-26T09:18:05.623Z,1001.3
2022-07-26T09:19:41.947Z,1001.3
2022-07-26T09:21:18.281Z,1001.4
2022-07-26T09:22:54.613Z,1001.4
2022-07-26T09:24:29.963Z,1001.4
2022-07-26T09:26:06.293Z,1001.4
2022-07-26T09:27:42.622Z,1001.4
2022-07-26T09:29:18.956Z,1001.5
2022-07-26T09:30:55.280Z,1001.4
2022-07-26T09:32:31.623Z,1001.5
2022-07-26T09:34:07.939Z,1001.5
2022-07-26T09:35:44.269Z,1001.5
2022-07-26T09:37:20.609Z,1001.5
2022-07-26T09:38:56.933Z,1001.4
2022-07-26T09:40:33.262Z,1001.5
2022-07-26T09:42:09.596Z,1001.4
2022-07-26T09:43:45.935Z,1001.6
2022-07-26T09:45:21.323Z,1001.5
2022-07-26T09:46:57.610Z,1001.5
2022-07-26T09:48:33.935Z,1001.5
2022-07-26T09:50:10.265Z,1001.5
2022-07-26T09:51:46.601Z,1001.5
2022-07-26T09:53:22.925Z,1001.5
2022-07-26T09:54:59.261Z,1001.6
2022-07-26T09:56:35.585Z,1001.6
2022-07-26T09:58:11.922Z,1001.6
2022-07-26T09:59:48.255Z,1001.6
2022-07-26T10:01:24.578Z,1001.6
2022-07-26T10:03:00.916Z,1001.7
2022-07-26T10:04:37.262Z,1001.7
2022-07-26T10:06:12.586Z,1001.7
2022-07-26T10:07:48.918Z,1001.6
2022-07-26T10:09:25.247Z,1001.6
2022-07-26T10:11:01.582Z,1001.6
2022-07-26T10:12:37.912Z,1001.6
2022-07-26T10:14:14.238Z,1001.7
2022-07-26T10:15:50.591Z,1001.6
2022-07-26T10:17:26.944Z,1001.6
2022-07-26T10:19:03.259Z,1001.6
2022-07-26T10:20:39.579Z,1001.6
2022-07-26T10:22:15.903Z,1001.6
2022-07-26T10:23:52.235Z,1001.6
2022-07-26T10:25:28.562Z,1001.6
2022-07-26T10:27:03.917Z,1001.6
2022-07-26T10:28:40.275Z,1001.6
2022-07-26T10:30:16.582Z,1001.6
2022-07-26T10:31:52.899Z,1001.6
2022-07-26T10:33:29.232Z,1001.6
2022-07-26T10:35:05.568Z,1001.6
2022-07-26T10:36:41.925Z,1001.7
2022-07-26T10:38:18.225Z,1001.7
2022-07-26T10:39:54.560Z,1001.7
2022-07-26T10:41:30.885Z,1001.6
2022-07-26T10:43:07.215Z,1001.7
2022-07-26T10:44:43.540Z,1001.7
2022-07-26T10:46:19.882Z,1001.7
2022-07-26T10:47:56.212Z,1001.8
2022-07-26T10:49:31.552Z,1001.8
2022-07-26T10:51:07.882Z,1001.9
2022-07-26T10:52:44.219Z,1001.9
2022-07-26T10:54:20.562Z,1002
2022-07-26T10:55:56.875Z,1002
2022-07-26T10:57:33.211Z,1002.1
2022-07-26T10:59:09.536Z,1002.1
2022-07-26T11:00:45.868Z,1002.2
2022-07-26T11:02:22.203Z,1002.1
2022-07-26T11:03:58.535Z,1002.2
2022-07-26T11:05:34.868Z,1002.1
2022-07-26T11:07:11.200Z,1002.1
2022-07-26T11:08:47.530Z,1002.1
2022-07-26T11:10:22.873Z,1002.1
2022-07-26T11:11:59.200Z,1002.2
2022-07-26T11:13:35.525Z,1002.2
2022-07-26T11:15:11.864Z,1002.2
2022-07-26T11:16:48.205Z,1002.2
2022-07-26T11:18:24.528Z,1002.3
2022-07-26T11:20:00.854Z,1002.3
2022-07-26T11:21:37.175Z,1002.3
2022-07-26T11:23:13.515Z,1002.3
2022-07-26T11:24:49.875Z,1002.3
2022-07-26T11:26:26.178Z,1002.3
2022-07-26T11:28:02.501Z,1002.3
2022-07-26T11:29:38.861Z,1002.3
2022-07-26T11:31:14.196Z,1002.4
2022-07-26T11:32:50.518Z,1002.4
2022-07-26T11:34:26.848Z,1002.3
2022-07-26T11:36:03.177Z,1002.3
2022-07-26T11:37:39.507Z,1002.3
2022-07-26T11:39:15.838Z,1002.4
2022-07-26T11:40:52.183Z,1002.4
2022-07-26T11:42:28.507Z,1002.4
2022-07-26T11:44:04.834Z,1002.4
2022-07-26T11:45:41.168Z,1002.4
2022-07-26T11:47:17.499Z,1002.5
2022-07-26T11:48:53.828Z,1002.5
2022-07-26T11:50:30.170Z,1002.5
2022-07-26T11:52:06.485Z,1002.5
2022-07-26T11:53:41.830Z,1002.5
2022-07-26T11:55:17.183Z,1002.5
2022-07-26T11:56:53.531Z,1002.6
2022-07-26T11:58:29.847Z,1002.6
2022-07-26T12:00:06.164Z,1002.6
2022-07-26T12:01:42.510Z,1002.6
2022-07-26T12:03:18.834Z,1002.6
2022-07-26T12:04:55.165Z,1002.6
2022-07-26T12:06:31.497Z,1002.7
2022-07-26T12:08:07.835Z,1002.7
2022-07-26T12:09:44.166Z,1002.6
2022-07-26T12:11:20.508Z,1002.7
2022-07-26T12:12:56.829Z,1002.7
2022-07-26T12:14:33.146Z,1002.6
2022-07-26T12:16:08.501Z,1002.6
2022-07-26T12:17:44.829Z,1002.7
2022-07-26T12:19:21.169Z,1002.6
2022-07-26T12:20:57.505Z,1002.7
2022-07-26T12:22:33.821Z,1002.6
2022-07-26T12:24:10.144Z,1002.7
2022-07-26T12:25:46.493Z,1002.7
2022-07-26T12:27:22.811Z,1002.7
2022-07-26T12:28:59.141Z,1002.7
2022-07-26T12:30:35.480Z,1002.7
2022-07-26T12:32:11.817Z,1002.6
2022-07-26T12:33:48.133Z,1002.6
2022-07-26T12:35:24.463Z,1002.6
2022-07-26T12:36:59.813Z,1002.7
2022-07-26T12:38:36.150Z,1002.6
2022-07-26T12:40:12.476Z,1002.6
2022-07-26T12:41:48.819Z,1002.6
2022-07-26T12:43:25.127Z,1002.6
2022-07-26T12:45:01.462Z,1002.7
2022-07-26T12:46:37.790Z,1002.6
2022-07-26T12:48:14.123Z,1002.6
2022-07-26T12:49:50.488Z,1002.6
2022-07-26T12:51:26.784Z,1002.5
2022-07-26T12:53:03.123Z,1002.5
2022-07-26T12:54:39.482Z,1002.6
2022-07-26T12:56:15.781Z,1002.6
2022-07-26T12:57:51.169Z,1002.6
2022-07-26T12:59:27.466Z,1002.6
2022-07-26T13:01:03.794Z,1002.6
2022-07-26T13:02:40.114Z,1002.5
2022-07-26T13:04:16.442Z,1002.6
2022-07-26T13:05:52.778Z,1002.6
2022-07-26T13:07:29.101Z,1002.6
2022-07-26T13:09:05.441Z,1002.6
2022-07-26T13:10:41.771Z,1002.6
2022-07-26T13:12:18.130Z,1002.6
2022-07-26T13:13:53.464Z,1002.6
2022-07-26T13:15:28.801Z,1002.6
2022-07-26T13:17:05.147Z,1002.6
2022-07-26T13:18:41.459Z,1002.7
2022-07-26T13:20:17.795Z,1002.7
2022-07-26T13:21:54.129Z,1002.6
2022-07-26T13:23:30.464Z,1002.6
2022-07-26T13:25:06.786Z,1002.7
2022-07-26T13:26:43.145Z,1002.7
2022-07-26T13:28:19.455Z,1002.6
2022-07-26T13:29:55.787Z,1002.7
2022-07-26T13:31:32.107Z,1002.7
2022-07-26T13:33:08.443Z,1002.7
2022-07-26T13:34:43.816Z,1002.6
2022-07-26T13:36:19.151Z,1002.6
2022-07-26T13:37:55.478Z,1002.6
2022-07-26T13:39:31.804Z,1002.6
2022-07-26T13:41:08.136Z,1002.6
2022-07-26T13:42:44.468Z,1002.6
2022-07-26T13:44:20.799Z,1002.6
2022-07-26T13:45:57.129Z,1002.6
2022-07-26T13:47:33.456Z,1002.6
2022-07-26T13:49:09.799Z,1002.6
2022-07-26T13:50:46.120Z,1002.6
2022-07-26T13:52:22.453Z,1002.6
2022-07-26T13:53:58.780Z,1002.6
2022-07-26T13:55:35.120Z,1002.6
2022-07-26T13:57:11.435Z,1002.7
2022-07-26T13:58:46.789Z,1002.6
2022-07-26T14:00:23.116Z,1002.6
2022-07-26T14:01:59.451Z,1002.7
2022-07-26T14:03:35.780Z,1002.6
2022-07-26T14:05:12.117Z,1002.6
2022-07-26T14:06:48.472Z,1002.7
2022-07-26T14:08:24.780Z,1002.6
2022-07-26T14:10:01.106Z,1002.6
2022-07-26T14:11:37.462Z,1002.6
2022-07-26T14:13:13.771Z,1002.6
2022-07-26T14:14:50.133Z,1002.6
2022-07-26T14:16:26.440Z,1002.6
2022-07-26T14:18:02.766Z,1002.6
2022-07-26T14:19:38.111Z,1002.6
2022-07-26T14:21:14.445Z,1002.6
2022-07-26T14:22:50.790Z,1002.6
2022-07-26T14:24:27.100Z,1002.6
2022-07-26T14:26:03.431Z,1002.6
2022-07-26T14:27:39.760Z,1002.7
2022-07-26T14:29:16.103Z,1002.7
2022-07-26T14:30:52.425Z,1002.7
2022-07-26T14:32:28.759Z,1002.7
2022-07-26T14:34:05.087Z,1002.7
2022-07-26T14:35:41.419Z,1002.7
2022-07-26T14:37:17.768Z,1002.7
2022-07-26T14:38:54.079Z,1002.8
2022-07-26T14:40:29.429Z,1002.7
2022-07-26T14:42:05.753Z,1002.7
2022-07-26T14:43:42.090Z,1002.7
2022-07-26T14:45:18.409Z,1002.7
2022-07-26T14:46:54.752Z,1002.7
2022-07-26T14:48:31.082Z,1002.7
2022-07-26T14:50:07.407Z,1002.8
2022-07-26T14:51:42.774Z,1002.8
2022-07-26T14:53:18.115Z,1002.8
2022-07-26T14:54:54.453Z,1002.8
2022-07-26T14:56:30.790Z,1002.9
2022-07-26T14:58:07.107Z,1002.9
2022-07-26T14:59:43.429Z,1002.9
2022-07-26T15:01:19.769Z,1002.9
2022-07-26T15:02:56.106Z,1002.9
2022-07-26T15:04:32.433Z,1002.9
2022-07-26T15:06:08.770Z,1002.9
2022-07-26T15:07:45.090Z,1002.9
2022-07-26T15:09:21.439Z,1002.9
2022-07-26T15:10:57.751Z,1002.9
2022-07-26T15:12:34.073Z,1002.9
2022-07-26T15:14:09.432Z,1003
2022-07-26T15:15:45.757Z,1002.9
2022-07-26T15:17:22.087Z,1003
2022-07-26T15:18:58.415Z,1003
2022-07-26T15:20:34.751Z,1003
2022-07-26T15:22:11.077Z,1003
2022-07-26T15:23:47.419Z,1003
2022-07-26T15:25:23.755Z,1003
2022-07-26T15:27:00.090Z,1003
2022-07-26T15:28:36.402Z,1003
2022-07-26T15:30:12.735Z,1003
2022-07-26T15:31:49.089Z,1003
2022-07-26T15:33:25.394Z,1003
2022-07-26T15:35:00.754Z,1003
2022-07-26T15:36:37.075Z,1003
2022-07-26T15:38:13.408Z,1003
2022-07-26T15:39:49.735Z,1003
2022-07-26T15:41:26.071Z,1003.1
2022-07-26T15:43:02.403Z,1003.1
2022-07-26T15:44:38.733Z,1003
2022-07-26T15:46:15.060Z,1003
2022-07-26T15:47:51.394Z,1003.1
2022-07-26T15:49:27.716Z,1003.1
2022-07-26T15:51:04.049Z,1003
2022-07-26T15:52:40.385Z,1003
2022-07-26T15:54:16.708Z,1003
2022-07-26T15:55:52.076Z,1003
2022-07-26T15:57:28.396Z,1002.9
2022-07-26T15:59:04.718Z,1002.9
2022-07-26T16:00:41.049Z,1003
2022-07-26T16:02:17.383Z,1003
2022-07-26T16:03:53.711Z,1003
2022-07-26T16:05:30.040Z,1003
2022-07-26T16:07:06.382Z,1003
2022-07-26T16:08:42.707Z,1003
2022-07-26T16:10:19.036Z,1003
2022-07-26T16:11:55.366Z,1003.1
2022-07-26T16:13:31.702Z,1003.1
2022-07-26T16:15:08.027Z,1003.1
2022-07-26T16:16:43.365Z,1003.1
2022-07-26T16:18:19.700Z,1003
2022-07-26T16:19:56.044Z,1003.1
2022-07-26T16:21:32.364Z,1003
2022-07-26T16:23:08.695Z,1003.1
2022-07-26T16:24:45.040Z,1003.1
2022-07-26T16:26:21.357Z,1003.1
2022-07-26T16:27:57.690Z,1003
2022-07-26T16:29:34.028Z,1003
2022-07-26T16:31:10.352Z,1003
2022-07-26T16:32:46.679Z,1003
2022-07-26T16:34:23.019Z,1003
2022-07-26T16:35:59.357Z,1003
2022-07-26T16:37:34.681Z,1003
2022-07-26T16:39:11.013Z,1003
2022-07-26T16:40:47.347Z,1003
2022-07-26T16:42:23.683Z,1003
2022-07-26T16:44:00.012Z,1003
2022-07-26T16:45:36.342Z,1003
2022-07-26T16:47:12.662Z,1003
2022-07-26T16:48:49.006Z,1002.9
2022-07-26T16:50:25.331Z,1003
2022-07-26T16:52:01.664Z,1003
2022-07-26T16:53:37.997Z,1003
2022-07-26T16:55:14.323Z,1003.1
2022-07-26T16:56:50.655Z,1003.1
2022-07-26T16:58:26.002Z,1003.1
2022-07-26T17:00:02.330Z,1003.1
2022-07-26T17:01:38.668Z,1003.2
2022-07-26T17:03:14.996Z,1003.2
2022-07-26T17:04:51.323Z,1003.2
2022-07-26T17:06:27.654Z,1003.2
2022-07-26T17:08:03.981Z,1003.2
2022-07-26T17:09:40.310Z,1003.2
2022-07-26T17:11:16.645Z,1003.2
2022-07-26T17:12:52.978Z,1003.2
2022-07-26T17:14:29.309Z,1003.2
2022-07-26T17:16:05.635Z,1003.2
2022-07-26T17:17:41.964Z,1003.3
2022-07-26T17:19:18.296Z,1003.3
2022-07-26T17:20:53.656Z,1003.3
2022-07-26T17:22:29.981Z,1003.4
2022-07-26T17:24:06.309Z,1003.4
2022-07-26T17:25:42.638Z,1003.3
2022-07-26T17:27:18.975Z,1003.3
2022-07-26T17:28:55.306Z,1003.3
2022-07-26T17:30:31.644Z,1003.3
2022-07-26T17:32:07.964Z,1003.3
2022-07-26T17:33:44.306Z,1003.3
2022-07-26T17:35:20.629Z,1003.3
2022-07-26T17:36:56.964Z,1003.3
2022-07-26T17:38:33.297Z,1003.4
2022-07-26T17:40:09.617Z,1003.4
2022-07-26T17:41:44.980Z,1003.3
2022-07-26T17:43:21.295Z,1003.3
2022-07-26T17:44:57.630Z,1003.3
2022-07-26T17:46:33.979Z,1003.3
2022-07-26T17:48:10.283Z,1003.4
2022-07-26T17:49:46.634Z,1003.4
2022-07-26T17:51:22.958Z,1003.4
2022-07-26T17:52:59.290Z,1003.4
2022-07-26T17:54:35.614Z,1003.4
2022-07-26T17:56:11.946Z,1003.3
2022-07-26T17:57:48.274Z,1003.4
2022-07-26T17:59:24.599Z,1003.3
2022-07-26T18:01:00.944Z,1003.4
2022-07-26T18:02:36.278Z,1003.4
2022-07-26T18:04:12.612Z,1003.5
2022-07-26T18:05:48.944Z,1003.5
2022-07-26T18:07:25.270Z,1003.5
2022-07-26T18:09:01.610Z,1003.5
2022-07-26T18:10:37.940Z,1003.5
2022-07-26T18:12:14.269Z,1003.5
2022-07-26T18:13:50.597Z,1003.5
2022-07-26T18:15:26.925Z,1003.5
2022-07-26T18:17:03.260Z,1003.5
2022-07-26T18:18:39.580Z,1003.5
2022-07-26T18:20:15.922Z,1003.5
2022-07-26T18:21:52.261Z,1003.5
2022-07-26T18:23:27.602Z,1003.5
2022-07-26T18:25:03.932Z,1003.5
2022-07-26T18:26:40.258Z,1003.5
2022-07-26T18:28:16.583Z,1003.4
2022-07-26T18:29:52.916Z,1003.4
2022-07-26T18:31:29.261Z,1003.4
2022-07-26T18:33:05.609Z,1003.4
2022-07-26T18:34:41.913Z,1003.4
2022-07-26T18:36:18.248Z,1003.4
2022-07-26T18:37:54.578Z,1003.4
2022-07-26T18:39:30.910Z,1003.4
2022-07-26T18:41:07.234Z,1003.3
2022-07-26T18:42:43.571Z,1003.4
2022-07-26T18:44:19.899Z,1003.4
2022-07-26T18:45:55.247Z,1003.4
2022-07-26T18:47:31.573Z,1003.4
2022-07-26T18:49:07.911Z,1003.4
2022-07-26T18:50:44.237Z,1003.4
2022-07-26T18:52:20.578Z,1003.5
2022-07-26T18:53:56.905Z,1003.5
2022-07-26T18:55:33.227Z,1003.5
2022-07-26T18:57:09.565Z,1003.5
2022-07-26T18:58:45.884Z,1003.5
2022-07-26T19:00:22.220Z,1003.5
2022-07-26T19:01:58.552Z,1003.5
2022-07-26T19:03:34.908Z,1003.5
2022-07-26T19:05:11.221Z,1003.4
2022-07-26T19:06:46.569Z,1003.4
2022-07-26T19:08:22.887Z,1003.4
2022-07-26T19:09:59.224Z,1003.4
2022-07-26T19:11:35.560Z,1003.4
2022-07-26T19:13:11.891Z,1003.5
2022-07-26T19:14:48.218Z,1003.5
2022-07-26T19:16:24.563Z,1003.6
2022-07-26T19:18:00.876Z,1003.6
2022-07-26T19:19:37.210Z,1003.6
2022-07-26T19:21:13.538Z,1003.6
2022-07-26T19:22:49.867Z,1003.7
2022-07-26T19:24:26.199Z,1003.7
2022-07-26T19:26:02.536Z,1003.7
2022-07-26T19:27:37.871Z,1003.7
2022-07-26T19:29:14.212Z,1003.7
2022-07-26T19:30:50.537Z,1003.7
2022-07-26T19:32:26.875Z,1003.7
2022-07-26T19:34:03.203Z,1003.7
2022-07-26T19:35:39.532Z,1003.7
2022-07-26T19:37:15.858Z,1003.8
2022-07-26T19:38:52.205Z,1003.8
2022-07-26T19:40:28.558Z,1003.8
2022-07-26T19:42:04.854Z,1003.8
2022-07-26T19:43:41.186Z,1003.8
2022-07-26T19:45:17.515Z,1003.8
2022-07-26T19:46:53.846Z,1003.8
2022-07-26T19:48:30.175Z,1003.8
2022-07-26T19:50:06.511Z,1003.9
2022-07-26T19:51:41.870Z,1004
2022-07-26T19:53:18.189Z,1004
2022-07-26T19:54:54.516Z,1004
2022-07-26T19:56:30.847Z,1004
2022-07-26T19:58:07.178Z,1004
2022-07-26T19:59:43.507Z,1004
2022-07-26T20:01:19.843Z,1004
2022-07-26T20:02:56.184Z,1004.1
2022-07-26T20:04:32.493Z,1004.1
2022-07-26T20:06:08.838Z,1004
2022-07-26T20:07:45.171Z,1004
2022-07-26T20:09:21.491Z,1004
2022-07-26T20:10:57.822Z,1004
2022-07-26T20:12:34.152Z,1004
2022-07-26T20:14:09.506Z,1004
2022-07-26T20:15:45.830Z,1004
2022-07-26T20:17:22.173Z,1004
2022-07-26T20:18:58.490Z,1004.1